PADL/DLG METAR and TAF weather

Enter ICAO airport designator
Station Type Date Time Source
PADL METAR 2019/09/21 19:56 UTC NOAA

PADL 211956Z 27005KT 10SM CLR 09/00 A2970 RMK AO2 SLP064 T00890000


Station Type Date Time Source
PADL Decoded METAR 2019/09/21 19:56 UTC NOAA

Dillingham, Dillingham Airport, AK, United States (PADL) 59-03N 158-31W 29M
Sep 21, 2019 - 03:56 PM EDT / 2019.09.21 1956 UTC
Wind: from the W (270 degrees) at 6 MPH (5 KT):0
Visibility: 10 mile(s):0
Sky conditions: clear
Temperature: 48.0 F (8.9 C)
Dew Point: 32.0 F (0.0 C)
Relative Humidity: 53%
Pressure (altimeter): 29.7 in. Hg (1005 hPa)
ob: PADL 211956Z 27005KT 10SM CLR 09/00 A2970 RMK AO2 SLP064 T00890000
cycle: 20

Station Type Date Time Source
PADL TAF 2019/09/21 18:22 UTC NOAA

TAF PADL 211720Z 2118/2218 VRB05KT P6SM SKC
FM212100 18010KT P6SM BKN050 OVC100
FM220000 22011G18KT P6SM -SHRA OVC030
FM220900 VRB05KT P6SM -SHRA SCT015 BKN030

Example: see airport list